sensor_id;sensor_type;location;lat;lon;timestamp;P1;durP1;ratioP1;P2;durP2;ratioP2
14849;SDS011;7517;48.400;11.770;2023-07-28T00:02:15;2.03;;;1.43;;
14849;SDS011;7517;48.400;11.770;2023-07-28T00:04:43;1.60;;;1.50;;
14849;SDS011;7517;48.400;11.770;2023-07-28T00:07:10;1.70;;;1.60;;
14849;SDS011;7517;48.400;11.770;2023-07-28T00:09:37;1.90;;;1.70;;
14849;SDS011;7517;48.400;11.770;2023-07-28T00:12:06;1.80;;;1.60;;
14849;SDS011;7517;48.400;11.770;2023-07-28T00:14:34;1.97;;;1.87;;
14849;SDS011;7517;48.400;11.770;2023-07-28T00:17:01;1.90;;;1.80;;
14849;SDS011;7517;48.400;11.770;2023-07-28T00:19:28;1.97;;;1.60;;
14849;SDS011;7517;48.400;11.770;2023-07-28T00:21:56;2.00;;;1.90;;
14849;SDS011;7517;48.400;11.770;2023-07-28T00:24:23;1.67;;;1.57;;
14849;SDS011;7517;48.400;11.770;2023-07-28T00:26:50;1.80;;;1.53;;
14849;SDS011;7517;48.400;11.770;2023-07-28T00:29:19;1.87;;;1.77;;
14849;SDS011;7517;48.400;11.770;2023-07-28T00:31:46;2.70;;;1.60;;
14849;SDS011;7517;48.400;11.770;2023-07-28T00:34:13;2.17;;;1.80;;
14849;SDS011;7517;48.400;11.770;2023-07-28T00:36:40;1.60;;;1.50;;
14849;SDS011;7517;48.400;11.770;2023-07-28T00:39:10;1.67;;;1.57;;
14849;SDS011;7517;48.400;11.770;2023-07-28T00:41:37;1.50;;;1.40;;
14849;SDS011;7517;48.400;11.770;2023-07-28T00:44:04;1.53;;;1.43;;
14849;SDS011;7517;48.400;11.770;2023-07-28T00:46:34;1.47;;;1.37;;
14849;SDS011;7517;48.400;11.770;2023-07-28T00:49:01;1.67;;;1.57;;
14849;SDS011;7517;48.400;11.770;2023-07-28T00:51:29;1.63;;;1.40;;
14849;SDS011;7517;48.400;11.770;2023-07-28T00:53:58;1.70;;;1.60;;
14849;SDS011;7517;48.400;11.770;2023-07-28T00:56:29;1.97;;;1.73;;
14849;SDS011;7517;48.400;11.770;2023-07-28T00:58:56;2.00;;;1.60;;
14849;SDS011;7517;48.400;11.770;2023-07-28T01:01:24;2.93;;;1.63;;
14849;SDS011;7517;48.400;11.770;2023-07-28T01:03:53;1.90;;;1.60;;
14849;SDS011;7517;48.400;11.770;2023-07-28T01:06:24;1.80;;;1.70;;
14849;SDS011;7517;48.400;11.770;2023-07-28T01:09:04;1.80;;;1.53;;
14849;SDS011;7517;48.400;11.770;2023-07-28T01:11:52;1.93;;;1.70;;
14849;SDS011;7517;48.400;11.770;2023-07-28T01:14:20;1.90;;;1.80;;
14849;SDS011;7517;48.400;11.770;2023-07-28T01:16:47;1.50;;;1.40;;
14849;SDS011;7517;48.400;11.770;2023-07-28T01:19:17;1.83;;;1.57;;
14849;SDS011;7517;48.400;11.770;2023-07-28T01:21:48;2.10;;;1.47;;
14849;SDS011;7517;48.400;11.770;2023-07-28T01:24:28;2.03;;;1.60;;
14849;SDS011;7517;48.400;11.770;2023-07-28T01:27:12;1.53;;;1.43;;
14849;SDS011;7517;48.400;11.770;2023-07-28T01:29:39;1.40;;;1.30;;
14849;SDS011;7517;48.400;11.770;2023-07-28T01:32:07;1.47;;;1.37;;
14849;SDS011;7517;48.400;11.770;2023-07-28T01:34:37;1.67;;;1.57;;
14849;SDS011;7517;48.400;11.770;2023-07-28T01:37:04;1.70;;;1.60;;
14849;SDS011;7517;48.400;11.770;2023-07-28T01:39:32;1.60;;;1.50;;
14849;SDS011;7517;48.400;11.770;2023-07-28T01:41:59;3.27;;;1.60;;
14849;SDS011;7517;48.400;11.770;2023-07-28T01:44:28;2.27;;;1.77;;
14849;SDS011;7517;48.400;11.770;2023-07-28T01:46:55;1.57;;;1.47;;
14849;SDS011;7517;48.400;11.770;2023-07-28T01:49:22;1.73;;;1.57;;
14849;SDS011;7517;48.400;11.770;2023-07-28T01:51:50;1.60;;;1.50;;
14849;SDS011;7517;48.400;11.770;2023-07-28T01:54:17;2.20;;;2.00;;
14849;SDS011;7517;48.400;11.770;2023-07-28T01:56:44;2.03;;;1.63;;
14849;SDS011;7517;48.400;11.770;2023-07-28T01:59:11;1.60;;;1.50;;
14849;SDS011;7517;48.400;11.770;2023-07-28T02:01:40;2.03;;;1.80;;
14849;SDS011;7517;48.400;11.770;2023-07-28T02:04:07;1.83;;;1.63;;
14849;SDS011;7517;48.400;11.770;2023-07-28T02:06:35;2.47;;;1.80;;
14849;SDS011;7517;48.400;11.770;2023-07-28T02:09:02;1.60;;;1.50;;
14849;SDS011;7517;48.400;11.770;2023-07-28T02:11:29;2.13;;;1.77;;
14849;SDS011;7517;48.400;11.770;2023-07-28T02:13:57;2.43;;;1.53;;
14849;SDS011;7517;48.400;11.770;2023-07-28T02:16:24;1.50;;;1.40;;
14849;SDS011;7517;48.400;11.770;2023-07-28T02:18:54;1.97;;;1.87;;
14849;SDS011;7517;48.400;11.770;2023-07-28T02:21:21;2.50;;;1.73;;
14849;SDS011;7517;48.400;11.770;2023-07-28T02:23:48;2.10;;;1.90;;
14849;SDS011;7517;48.400;11.770;2023-07-28T02:26:16;2.30;;;1.90;;
14849;SDS011;7517;48.400;11.770;2023-07-28T02:28:43;1.80;;;1.70;;
14849;SDS011;7517;48.400;11.770;2023-07-28T02:31:10;1.60;;;1.50;;
14849;SDS011;7517;48.400;11.770;2023-07-28T02:33:37;1.67;;;1.57;;
14849;SDS011;7517;48.400;11.770;2023-07-28T02:36:06;1.80;;;1.70;;
14849;SDS011;7517;48.400;11.770;2023-07-28T02:38:33;1.80;;;1.70;;
14849;SDS011;7517;48.400;11.770;2023-07-28T02:41:01;1.80;;;1.70;;
14849;SDS011;7517;48.400;11.770;2023-07-28T02:43:29;2.73;;;1.60;;
14849;SDS011;7517;48.400;11.770;2023-07-28T02:45:56;1.90;;;1.80;;
14849;SDS011;7517;48.400;11.770;2023-07-28T02:48:24;2.00;;;1.90;;
14849;SDS011;7517;48.400;11.770;2023-07-28T02:50:52;2.33;;;2.00;;
14849;SDS011;7517;48.400;11.770;2023-07-28T02:53:21;1.97;;;1.80;;
14849;SDS011;7517;48.400;11.770;2023-07-28T02:55:49;1.60;;;1.50;;
14849;SDS011;7517;48.400;11.770;2023-07-28T02:58:16;3.40;;;2.17;;
14849;SDS011;7517;48.400;11.770;2023-07-28T03:00:44;2.10;;;1.90;;
14849;SDS011;7517;48.400;11.770;2023-07-28T03:03:11;1.80;;;1.70;;
14849;SDS011;7517;48.400;11.770;2023-07-28T03:05:39;2.17;;;1.97;;
14849;SDS011;7517;48.400;11.770;2023-07-28T03:08:06;1.67;;;1.57;;
14849;SDS011;7517;48.400;11.770;2023-07-28T03:10:35;2.70;;;1.77;;
14849;SDS011;7517;48.400;11.770;2023-07-28T03:13:02;1.87;;;1.77;;
14849;SDS011;7517;48.400;11.770;2023-07-28T03:15:29;1.87;;;1.60;;
14849;SDS011;7517;48.400;11.770;2023-07-28T03:17:57;1.97;;;1.57;;
14849;SDS011;7517;48.400;11.770;2023-07-28T03:20:24;2.20;;;1.63;;
14849;SDS011;7517;48.400;11.770;2023-07-28T03:22:51;2.50;;;1.50;;
14849;SDS011;7517;48.400;11.770;2023-07-28T03:25:19;2.03;;;1.70;;
14849;SDS011;7517;48.400;11.770;2023-07-28T03:27:48;2.47;;;1.80;;
14849;SDS011;7517;48.400;11.770;2023-07-28T03:30:15;1.77;;;1.67;;
14849;SDS011;7517;48.400;11.770;2023-07-28T03:32:42;1.97;;;1.73;;
14849;SDS011;7517;48.400;11.770;2023-07-28T03:35:09;1.60;;;1.50;;
14849;SDS011;7517;48.400;11.770;2023-07-28T03:37:37;2.40;;;1.53;;
14849;SDS011;7517;48.400;11.770;2023-07-28T03:40:04;5.17;;;2.13;;
14849;SDS011;7517;48.400;11.770;2023-07-28T03:42:33;1.87;;;1.77;;
14849;SDS011;7517;48.400;11.770;2023-07-28T03:45:02;2.43;;;1.70;;
14849;SDS011;7517;48.400;11.770;2023-07-28T03:47:30;1.80;;;1.70;;
14849;SDS011;7517;48.400;11.770;2023-07-28T03:49:57;3.07;;;2.07;;
14849;SDS011;7517;48.400;11.770;2023-07-28T03:52:25;1.80;;;1.70;;
14849;SDS011;7517;48.400;11.770;2023-07-28T03:54:52;2.07;;;1.87;;
14849;SDS011;7517;48.400;11.770;2023-07-28T03:57:19;2.00;;;1.77;;
14849;SDS011;7517;48.400;11.770;2023-07-28T03:59:46;2.13;;;1.93;;
14849;SDS011;7517;48.400;11.770;2023-07-28T04:02:15;2.47;;;2.00;;
14849;SDS011;7517;48.400;11.770;2023-07-28T04:04:42;2.67;;;2.07;;
14849;SDS011;7517;48.400;11.770;2023-07-28T04:07:10;1.87;;;1.77;;
14849;SDS011;7517;48.400;11.770;2023-07-28T04:09:37;1.80;;;1.70;;
14849;SDS011;7517;48.400;11.770;2023-07-28T04:12:04;1.80;;;1.70;;
14849;SDS011;7517;48.400;11.770;2023-07-28T04:14:33;1.83;;;1.73;;
14849;SDS011;7517;48.400;11.770;2023-07-28T04:17:01;2.20;;;2.00;;
14849;SDS011;7517;48.400;11.770;2023-07-28T04:19:30;2.10;;;1.90;;
14849;SDS011;7517;48.400;11.770;2023-07-28T04:21:58;1.80;;;1.70;;
14849;SDS011;7517;48.400;11.770;2023-07-28T04:24:26;2.67;;;2.00;;
14849;SDS011;7517;48.400;11.770;2023-07-28T04:26:53;2.10;;;1.90;;
14849;SDS011;7517;48.400;11.770;2023-07-28T04:29:21;2.03;;;1.93;;
14849;SDS011;7517;48.400;11.770;2023-07-28T04:31:48;2.13;;;1.90;;
14849;SDS011;7517;48.400;11.770;2023-07-28T04:34:15;1.70;;;1.50;;
14849;SDS011;7517;48.400;11.770;2023-07-28T04:36:44;1.90;;;1.70;;
14849;SDS011;7517;48.400;11.770;2023-07-28T04:39:11;1.90;;;1.80;;
14849;SDS011;7517;48.400;11.770;2023-07-28T04:41:38;1.90;;;1.80;;
14849;SDS011;7517;48.400;11.770;2023-07-28T04:44:05;2.53;;;2.30;;
14849;SDS011;7517;48.400;11.770;2023-07-28T04:46:32;2.70;;;1.90;;
14849;SDS011;7517;48.400;11.770;2023-07-28T04:49:00;1.80;;;1.70;;
14849;SDS011;7517;48.400;11.770;2023-07-28T04:51:27;2.23;;;2.00;;
14849;SDS011;7517;48.400;11.770;2023-07-28T04:53:56;2.33;;;2.00;;
14849;SDS011;7517;48.400;11.770;2023-07-28T04:56:23;1.83;;;1.73;;
14849;SDS011;7517;48.400;11.770;2023-07-28T04:58:51;2.33;;;2.13;;
14849;SDS011;7517;48.400;11.770;2023-07-28T05:01:18;2.17;;;1.97;;
14849;SDS011;7517;48.400;11.770;2023-07-28T05:03:45;1.90;;;1.80;;
14849;SDS011;7517;48.400;11.770;2023-07-28T05:06:13;2.87;;;2.00;;
14849;SDS011;7517;48.400;11.770;2023-07-28T05:08:40;2.10;;;2.00;;
14849;SDS011;7517;48.400;11.770;2023-07-28T05:11:09;2.43;;;1.83;;
14849;SDS011;7517;48.400;11.770;2023-07-28T05:13:36;2.23;;;1.83;;
14849;SDS011;7517;48.400;11.770;2023-07-28T05:16:03;2.10;;;1.90;;
14849;SDS011;7517;48.400;11.770;2023-07-28T05:18:31;1.83;;;1.73;;
14849;SDS011;7517;48.400;11.770;2023-07-28T05:20:58;2.07;;;1.77;;
14849;SDS011;7517;48.400;11.770;2023-07-28T05:23:25;1.90;;;1.70;;
14849;SDS011;7517;48.400;11.770;2023-07-28T05:25:52;2.20;;;2.00;;
14849;SDS011;7517;48.400;11.770;2023-07-28T05:28:20;2.40;;;1.90;;
14849;SDS011;7517;48.400;11.770;2023-07-28T05:30:48;2.37;;;2.17;;
14849;SDS011;7517;48.400;11.770;2023-07-28T05:33:15;3.00;;;1.90;;
14849;SDS011;7517;48.400;11.770;2023-07-28T05:35:42;1.93;;;1.50;;
14849;SDS011;7517;48.400;11.770;2023-07-28T05:38:09;1.77;;;1.67;;
14849;SDS011;7517;48.400;11.770;2023-07-28T05:40:36;2.07;;;1.97;;
14849;SDS011;7517;48.400;11.770;2023-07-28T05:43:04;2.20;;;2.00;;
14849;SDS011;7517;48.400;11.770;2023-07-28T05:45:32;1.80;;;1.70;;
14849;SDS011;7517;48.400;11.770;2023-07-28T05:47:59;2.43;;;2.07;;
14849;SDS011;7517;48.400;11.770;2023-07-28T05:50:26;2.30;;;1.60;;
14849;SDS011;7517;48.400;11.770;2023-07-28T05:52:54;1.57;;;1.47;;
14849;SDS011;7517;48.400;11.770;2023-07-28T05:55:21;7.03;;;1.83;;
14849;SDS011;7517;48.400;11.770;2023-07-28T05:57:48;2.07;;;1.70;;
14849;SDS011;7517;48.400;11.770;2023-07-28T06:00:15;1.50;;;1.40;;
14849;SDS011;7517;48.400;11.770;2023-07-28T06:02:44;2.40;;;1.70;;
14849;SDS011;7517;48.400;11.770;2023-07-28T06:05:12;1.60;;;1.50;;
14849;SDS011;7517;48.400;11.770;2023-07-28T06:07:39;2.23;;;1.57;;
14849;SDS011;7517;48.400;11.770;2023-07-28T06:10:06;1.83;;;1.73;;
14849;SDS011;7517;48.400;11.770;2023-07-28T06:12:34;2.00;;;1.60;;
14849;SDS011;7517;48.400;11.770;2023-07-28T06:15:01;2.07;;;1.60;;
14849;SDS011;7517;48.400;11.770;2023-07-28T06:17:30;2.03;;;1.93;;
14849;SDS011;7517;48.400;11.770;2023-07-28T06:19:59;1.43;;;1.33;;
14849;SDS011;7517;48.400;11.770;2023-07-28T06:22:27;1.47;;;1.37;;
14849;SDS011;7517;48.400;11.770;2023-07-28T06:24:54;1.50;;;1.40;;
14849;SDS011;7517;48.400;11.770;2023-07-28T06:27:21;1.40;;;1.30;;
14849;SDS011;7517;48.400;11.770;2023-07-28T06:29:48;1.50;;;1.40;;
14849;SDS011;7517;48.400;11.770;2023-07-28T06:32:16;1.83;;;1.73;;
14849;SDS011;7517;48.400;11.770;2023-07-28T06:34:43;1.60;;;1.50;;
14849;SDS011;7517;48.400;11.770;2023-07-28T06:37:12;1.40;;;1.30;;
14849;SDS011;7517;48.400;11.770;2023-07-28T06:39:39;1.60;;;1.40;;
14849;SDS011;7517;48.400;11.770;2023-07-28T06:42:06;1.47;;;1.30;;
14849;SDS011;7517;48.400;11.770;2023-07-28T06:44:33;1.53;;;1.43;;
14849;SDS011;7517;48.400;11.770;2023-07-28T06:47:01;1.70;;;1.60;;
14849;SDS011;7517;48.400;11.770;2023-07-28T06:49:28;3.07;;;1.60;;
14849;SDS011;7517;48.400;11.770;2023-07-28T06:51:55;1.40;;;1.30;;
14849;SDS011;7517;48.400;11.770;2023-07-28T06:54:24;2.17;;;1.20;;
14849;SDS011;7517;48.400;11.770;2023-07-28T06:56:51;1.27;;;1.17;;
14849;SDS011;7517;48.400;11.770;2023-07-28T06:59:19;1.30;;;1.20;;
14849;SDS011;7517;48.400;11.770;2023-07-28T07:01:46;1.73;;;1.30;;
14849;SDS011;7517;48.400;11.770;2023-07-28T07:04:13;1.63;;;1.30;;
14849;SDS011;7517;48.400;11.770;2023-07-28T07:06:41;1.30;;;1.20;;
14849;SDS011;7517;48.400;11.770;2023-07-28T07:09:08;1.60;;;1.50;;
14849;SDS011;7517;48.400;11.770;2023-07-28T07:11:40;1.80;;;1.37;;
14849;SDS011;7517;48.400;11.770;2023-07-28T07:14:08;1.30;;;1.20;;
14849;SDS011;7517;48.400;11.770;2023-07-28T07:16:35;1.30;;;1.20;;
14849;SDS011;7517;48.400;11.770;2023-07-28T07:19:02;1.33;;;1.23;;
14849;SDS011;7517;48.400;11.770;2023-07-28T07:21:30;1.20;;;1.10;;
14849;SDS011;7517;48.400;11.770;2023-07-28T07:23:57;1.40;;;1.30;;
14849;SDS011;7517;48.400;11.770;2023-07-28T07:26:24;1.50;;;1.20;;
14849;SDS011;7517;48.400;11.770;2023-07-28T07:28:53;2.20;;;1.03;;
14849;SDS011;7517;48.400;11.770;2023-07-28T07:31:20;2.60;;;1.30;;
14849;SDS011;7517;48.400;11.770;2023-07-28T07:33:48;3.23;;;1.37;;
14849;SDS011;7517;48.400;11.770;2023-07-28T07:36:17;1.40;;;1.30;;
14849;SDS011;7517;48.400;11.770;2023-07-28T07:38:46;1.40;;;1.30;;
14849;SDS011;7517;48.400;11.770;2023-07-28T07:41:14;1.40;;;1.30;;
14849;SDS011;7517;48.400;11.770;2023-07-28T07:43:44;1.80;;;1.50;;
14849;SDS011;7517;48.400;11.770;2023-07-28T07:46:13;1.27;;;1.17;;
14849;SDS011;7517;48.400;11.770;2023-07-28T07:48:41;2.97;;;1.87;;
14849;SDS011;7517;48.400;11.770;2023-07-28T07:51:08;1.10;;;1.10;;
14849;SDS011;7517;48.400;11.770;2023-07-28T07:53:35;1.23;;;1.13;;
14849;SDS011;7517;48.400;11.770;2023-07-28T07:56:03;2.33;;;1.13;;
14849;SDS011;7517;48.400;11.770;2023-07-28T07:58:31;0.93;;;0.83;;
14849;SDS011;7517;48.400;11.770;2023-07-28T08:01:00;1.57;;;1.43;;
14849;SDS011;7517;48.400;11.770;2023-07-28T08:03:28;1.70;;;1.00;;
14849;SDS011;7517;48.400;11.770;2023-07-28T08:05:56;1.33;;;1.23;;
14849;SDS011;7517;48.400;11.770;2023-07-28T08:08:24;3.20;;;1.30;;
14849;SDS011;7517;48.400;11.770;2023-07-28T08:10:52;2.07;;;1.00;;
14849;SDS011;7517;48.400;11.770;2023-07-28T08:13:19;2.07;;;1.07;;
14849;SDS011;7517;48.400;11.770;2023-07-28T08:15:47;1.70;;;1.30;;
14849;SDS011;7517;48.400;11.770;2023-07-28T08:18:14;1.50;;;1.30;;
14849;SDS011;7517;48.400;11.770;2023-07-28T08:20:43;1.20;;;1.20;;
14849;SDS011;7517;48.400;11.770;2023-07-28T08:23:10;1.47;;;1.07;;
14849;SDS011;7517;48.400;11.770;2023-07-28T08:25:37;1.20;;;1.10;;
14849;SDS011;7517;48.400;11.770;2023-07-28T08:28:04;1.00;;;1.00;;
14849;SDS011;7517;48.400;11.770;2023-07-28T08:30:32;1.53;;;1.30;;
14849;SDS011;7517;48.400;11.770;2023-07-28T08:32:59;3.70;;;1.47;;
14849;SDS011;7517;48.400;11.770;2023-07-28T08:35:27;1.50;;;1.40;;
14849;SDS011;7517;48.400;11.770;2023-07-28T08:37:55;1.47;;;1.37;;
14849;SDS011;7517;48.400;11.770;2023-07-28T08:40:22;1.47;;;1.30;;
14849;SDS011;7517;48.400;11.770;2023-07-28T08:42:53;1.43;;;1.20;;
14849;SDS011;7517;48.400;11.770;2023-07-28T08:45:20;1.50;;;1.00;;
14849;SDS011;7517;48.400;11.770;2023-07-28T08:47:49;1.40;;;1.30;;
14849;SDS011;7517;48.400;11.770;2023-07-28T08:50:17;1.20;;;1.20;;
14849;SDS011;7517;48.400;11.770;2023-07-28T08:52:44;1.77;;;1.17;;
14849;SDS011;7517;48.400;11.770;2023-07-28T08:55:13;1.30;;;1.20;;
14849;SDS011;7517;48.400;11.770;2023-07-28T08:57:40;2.00;;;1.30;;
14849;SDS011;7517;48.400;11.770;2023-07-28T09:00:08;1.08;;;1.05;;
14849;SDS011;7517;48.400;11.770;2023-07-28T09:02:39;1.60;;;1.50;;
14849;SDS011;7517;48.400;11.770;2023-07-28T09:05:08;1.45;;;1.35;;
14849;SDS011;7517;48.400;11.770;2023-07-28T09:07:45;1.30;;;1.20;;
14849;SDS011;7517;48.400;11.770;2023-07-28T09:10:14;1.33;;;1.23;;
14849;SDS011;7517;48.400;11.770;2023-07-28T09:12:44;1.80;;;1.70;;
14849;SDS011;7517;48.400;11.770;2023-07-28T09:15:12;1.67;;;1.40;;
14849;SDS011;7517;48.400;11.770;2023-07-28T09:17:41;1.48;;;1.38;;
14849;SDS011;7517;48.400;11.770;2023-07-28T09:20:12;1.40;;;1.30;;
14849;SDS011;7517;48.400;11.770;2023-07-28T09:22:41;1.35;;;1.25;;
14849;SDS011;7517;48.400;11.770;2023-07-28T09:25:11;1.10;;;1.10;;
14849;SDS011;7517;48.400;11.770;2023-07-28T09:27:48;1.52;;;1.42;;
14849;SDS011;7517;48.400;11.770;2023-07-28T09:30:16;2.97;;;1.45;;
14849;SDS011;7517;48.400;11.770;2023-07-28T09:32:46;1.10;;;1.08;;
14849;SDS011;7517;48.400;11.770;2023-07-28T09:35:15;2.03;;;1.10;;
14849;SDS011;7517;48.400;11.770;2023-07-28T09:37:44;1.25;;;1.15;;
14849;SDS011;7517;48.400;11.770;2023-07-28T09:40:16;1.27;;;1.17;;
14849;SDS011;7517;48.400;11.770;2023-07-28T09:42:45;1.40;;;1.30;;
14849;SDS011;7517;48.400;11.770;2023-07-28T09:45:16;1.00;;;1.00;;
14849;SDS011;7517;48.400;11.770;2023-07-28T09:47:44;1.40;;;1.30;;
14849;SDS011;7517;48.400;11.770;2023-07-28T09:50:14;1.52;;;1.42;;
14849;SDS011;7517;48.400;11.770;2023-07-28T09:52:45;1.00;;;1.00;;
14849;SDS011;7517;48.400;11.770;2023-07-28T09:55:17;1.50;;;1.17;;
14849;SDS011;7517;48.400;11.770;2023-07-28T09:57:45;1.30;;;1.20;;
14849;SDS011;7517;48.400;11.770;2023-07-28T10:00:18;0.90;;;0.90;;
14849;SDS011;7517;48.400;11.770;2023-07-28T10:02:49;1.48;;;1.38;;
14849;SDS011;7517;48.400;11.770;2023-07-28T10:05:16;1.30;;;1.20;;
14849;SDS011;7517;48.400;11.770;2023-07-28T10:07:44;1.23;;;1.13;;
14849;SDS011;7517;48.400;11.770;2023-07-28T10:10:14;2.30;;;1.33;;
14849;SDS011;7517;48.400;11.770;2023-07-28T10:12:45;1.55;;;1.45;;
14849;SDS011;7517;48.400;11.770;2023-07-28T10:15:15;2.42;;;1.40;;
14849;SDS011;7517;48.400;11.770;2023-07-28T10:17:44;1.85;;;1.25;;
14849;SDS011;7517;48.400;11.770;2023-07-28T10:23:05;0.95;;;0.95;;
14849;SDS011;7517;48.400;11.770;2023-07-28T10:25:39;4.07;;;1.48;;
14849;SDS011;7517;48.400;11.770;2023-07-28T10:30:56;1.27;;;1.15;;
14849;SDS011;7517;48.400;11.770;2023-07-28T10:33:28;1.17;;;1.13;;
14849;SDS011;7517;48.400;11.770;2023-07-28T10:35:58;2.50;;;1.20;;
14849;SDS011;7517;48.400;11.770;2023-07-28T10:38:32;1.30;;;1.20;;
14849;SDS011;7517;48.400;11.770;2023-07-28T10:41:07;1.50;;;1.30;;
14849;SDS011;7517;48.400;11.770;2023-07-28T10:43:37;1.40;;;1.30;;
14849;SDS011;7517;48.400;11.770;2023-07-28T10:46:05;1.73;;;1.13;;
14849;SDS011;7517;48.400;11.770;2023-07-28T10:48:37;1.20;;;1.10;;
14849;SDS011;7517;48.400;11.770;2023-07-28T10:51:09;1.73;;;1.15;;
14849;SDS011;7517;48.400;11.770;2023-07-28T10:53:37;1.08;;;1.00;;
14849;SDS011;7517;48.400;11.770;2023-07-28T10:56:07;1.48;;;1.38;;
14849;SDS011;7517;48.400;11.770;2023-07-28T10:58:35;1.48;;;1.38;;
14849;SDS011;7517;48.400;11.770;2023-07-28T11:01:03;1.23;;;1.15;;
14849;SDS011;7517;48.400;11.770;2023-07-28T11:03:30;1.25;;;1.15;;
14849;SDS011;7517;48.400;11.770;2023-07-28T11:05:58;1.17;;;1.10;;
14849;SDS011;7517;48.400;11.770;2023-07-28T11:08:26;1.50;;;1.27;;
14849;SDS011;7517;48.400;11.770;2023-07-28T11:10:53;1.52;;;1.42;;
14849;SDS011;7517;48.400;11.770;2023-07-28T11:13:22;1.05;;;1.05;;
14849;SDS011;7517;48.400;11.770;2023-07-28T11:15:50;1.25;;;1.15;;
14849;SDS011;7517;48.400;11.770;2023-07-28T11:18:18;1.10;;;1.10;;
14849;SDS011;7517;48.400;11.770;2023-07-28T11:20:46;1.90;;;1.80;;
14849;SDS011;7517;48.400;11.770;2023-07-28T11:23:13;1.70;;;1.60;;
14849;SDS011;7517;48.400;11.770;2023-07-28T11:25:43;2.45;;;1.40;;
14849;SDS011;7517;48.400;11.770;2023-07-28T11:28:12;1.38;;;1.27;;
14849;SDS011;7517;48.400;11.770;2023-07-28T11:30:41;1.20;;;1.10;;
14849;SDS011;7517;48.400;11.770;2023-07-28T11:33:09;1.80;;;1.52;;
14849;SDS011;7517;48.400;11.770;2023-07-28T11:35:38;1.20;;;1.20;;
14849;SDS011;7517;48.400;11.770;2023-07-28T11:38:06;1.00;;;1.00;;
14849;SDS011;7517;48.400;11.770;2023-07-28T11:40:35;1.05;;;1.05;;
14849;SDS011;7517;48.400;11.770;2023-07-28T11:43:04;1.08;;;1.08;;
14849;SDS011;7517;48.400;11.770;2023-07-28T11:45:32;1.23;;;1.15;;
14849;SDS011;7517;48.400;11.770;2023-07-28T11:48:02;1.23;;;1.10;;
14849;SDS011;7517;48.400;11.770;2023-07-28T11:50:34;1.30;;;1.20;;
14849;SDS011;7517;48.400;11.770;2023-07-28T11:53:04;1.13;;;1.08;;
14849;SDS011;7517;48.400;11.770;2023-07-28T11:55:32;1.30;;;1.20;;
14849;SDS011;7517;48.400;11.770;2023-07-28T11:58:02;1.45;;;1.35;;
14849;SDS011;7517;48.400;11.770;2023-07-28T12:00:31;1.40;;;1.30;;
14849;SDS011;7517;48.400;11.770;2023-07-28T12:03:12;1.45;;;1.33;;
14849;SDS011;7517;48.400;11.770;2023-07-28T12:05:40;1.35;;;1.00;;
14849;SDS011;7517;48.400;11.770;2023-07-28T12:08:33;1.30;;;1.20;;
14849;SDS011;7517;48.400;11.770;2023-07-28T12:11:01;1.13;;;1.13;;
14849;SDS011;7517;48.400;11.770;2023-07-28T12:13:28;1.35;;;1.27;;
14849;SDS011;7517;48.400;11.770;2023-07-28T12:15:56;1.30;;;1.20;;
14849;SDS011;7517;48.400;11.770;2023-07-28T12:18:27;4.05;;;1.30;;
14849;SDS011;7517;48.400;11.770;2023-07-28T12:20:56;2.07;;;1.53;;
14849;SDS011;7517;48.400;11.770;2023-07-28T12:23:25;1.98;;;1.17;;
14849;SDS011;7517;48.400;11.770;2023-07-28T12:25:52;1.50;;;1.40;;
14849;SDS011;7517;48.400;11.770;2023-07-28T12:28:20;1.60;;;1.50;;
14849;SDS011;7517;48.400;11.770;2023-07-28T12:30:48;1.50;;;1.40;;
14849;SDS011;7517;48.400;11.770;2023-07-28T12:33:17;1.60;;;1.50;;
14849;SDS011;7517;48.400;11.770;2023-07-28T12:35:46;1.63;;;1.38;;
14849;SDS011;7517;48.400;11.770;2023-07-28T12:38:13;1.40;;;1.30;;
14849;SDS011;7517;48.400;11.770;2023-07-28T12:40:40;2.30;;;1.40;;
14849;SDS011;7517;48.400;11.770;2023-07-28T12:43:07;2.95;;;1.30;;
14849;SDS011;7517;48.400;11.770;2023-07-28T12:45:34;1.35;;;1.30;;
14849;SDS011;7517;48.400;11.770;2023-07-28T12:48:01;1.50;;;1.40;;
14849;SDS011;7517;48.400;11.770;2023-07-28T12:50:29;1.50;;;1.40;;
14849;SDS011;7517;48.400;11.770;2023-07-28T12:52:58;1.33;;;1.23;;
14849;SDS011;7517;48.400;11.770;2023-07-28T12:55:25;1.60;;;1.50;;
14849;SDS011;7517;48.400;11.770;2023-07-28T12:57:52;1.58;;;1.15;;
14849;SDS011;7517;48.400;11.770;2023-07-28T13:00:20;1.42;;;1.33;;
14849;SDS011;7517;48.400;11.770;2023-07-28T13:02:47;1.30;;;1.20;;
14849;SDS011;7517;48.400;11.770;2023-07-28T13:05:14;2.53;;;1.27;;
14849;SDS011;7517;48.400;11.770;2023-07-28T13:07:42;1.30;;;1.20;;
14849;SDS011;7517;48.400;11.770;2023-07-28T13:10:10;1.67;;;1.58;;
14849;SDS011;7517;48.400;11.770;2023-07-28T13:12:38;1.42;;;1.33;;
14849;SDS011;7517;48.400;11.770;2023-07-28T13:15:06;1.35;;;1.27;;
14849;SDS011;7517;48.400;11.770;2023-07-28T13:17:34;1.23;;;1.13;;
14849;SDS011;7517;48.400;11.770;2023-07-28T13:20:01;1.40;;;1.30;;
14849;SDS011;7517;48.400;11.770;2023-07-28T13:22:28;1.38;;;1.30;;
14849;SDS011;7517;48.400;11.770;2023-07-28T13:24:55;1.58;;;1.48;;
14849;SDS011;7517;48.400;11.770;2023-07-28T13:27:24;1.92;;;1.50;;
14849;SDS011;7517;48.400;11.770;2023-07-28T13:29:51;1.42;;;1.33;;
14849;SDS011;7517;48.400;11.770;2023-07-28T13:32:22;1.60;;;1.50;;
14849;SDS011;7517;48.400;11.770;2023-07-28T13:34:52;1.70;;;1.60;;
14849;SDS011;7517;48.400;11.770;2023-07-28T13:37:19;1.42;;;1.33;;
14849;SDS011;7517;48.400;11.770;2023-07-28T13:39:46;1.52;;;1.40;;
14849;SDS011;7517;48.400;11.770;2023-07-28T13:42:13;1.90;;;1.70;;
14849;SDS011;7517;48.400;11.770;2023-07-28T13:44:42;1.35;;;1.25;;
14849;SDS011;7517;48.400;11.770;2023-07-28T13:47:09;1.50;;;1.40;;
14849;SDS011;7517;48.400;11.770;2023-07-28T13:49:36;2.05;;;1.58;;
14849;SDS011;7517;48.400;11.770;2023-07-28T13:52:04;1.50;;;1.40;;
14849;SDS011;7517;48.400;11.770;2023-07-28T13:54:32;1.70;;;1.17;;
14849;SDS011;7517;48.400;11.770;2023-07-28T13:56:59;1.58;;;1.48;;
14849;SDS011;7517;48.400;11.770;2023-07-28T13:59:27;1.60;;;1.50;;
14849;SDS011;7517;48.400;11.770;2023-07-28T14:01:56;3.33;;;1.38;;
14849;SDS011;7517;48.400;11.770;2023-07-28T14:04:24;1.48;;;1.38;;
14849;SDS011;7517;48.400;11.770;2023-07-28T14:06:51;1.23;;;1.23;;
14849;SDS011;7517;48.400;11.770;2023-07-28T14:09:18;1.73;;;1.63;;
14849;SDS011;7517;48.400;11.770;2023-07-28T14:11:46;1.45;;;1.35;;
14849;SDS011;7517;48.400;11.770;2023-07-28T14:14:13;1.70;;;1.38;;
14849;SDS011;7517;48.400;11.770;2023-07-28T14:16:40;1.60;;;1.50;;
14849;SDS011;7517;48.400;11.770;2023-07-28T14:19:09;1.45;;;1.13;;
14849;SDS011;7517;48.400;11.770;2023-07-28T14:21:36;1.27;;;1.23;;
14849;SDS011;7517;48.400;11.770;2023-07-28T14:24:04;1.50;;;1.13;;
14849;SDS011;7517;48.400;11.770;2023-07-28T14:26:31;1.38;;;1.27;;
14849;SDS011;7517;48.400;11.770;2023-07-28T14:28:59;5.32;;;1.63;;
14849;SDS011;7517;48.400;11.770;2023-07-28T14:31:26;1.55;;;1.45;;
14849;SDS011;7517;48.400;11.770;2023-07-28T14:33:53;1.33;;;1.23;;
14849;SDS011;7517;48.400;11.770;2023-07-28T14:36:21;1.50;;;1.27;;
14849;SDS011;7517;48.400;11.770;2023-07-28T14:38:49;1.30;;;1.20;;
14849;SDS011;7517;48.400;11.770;2023-07-28T14:41:16;1.30;;;1.20;;
14849;SDS011;7517;48.400;11.770;2023-07-28T14:43:43;1.33;;;1.23;;
14849;SDS011;7517;48.400;11.770;2023-07-28T14:46:11;1.52;;;1.42;;
14849;SDS011;7517;48.400;11.770;2023-07-28T14:48:38;2.25;;;1.52;;
14849;SDS011;7517;48.400;11.770;2023-07-28T14:51:05;1.48;;;1.38;;
14849;SDS011;7517;48.400;11.770;2023-07-28T14:53:34;2.10;;;1.50;;
14849;SDS011;7517;48.400;11.770;2023-07-28T14:56:03;1.63;;;1.50;;
14849;SDS011;7517;48.400;11.770;2023-07-28T14:58:31;2.05;;;1.48;;
14849;SDS011;7517;48.400;11.770;2023-07-28T15:00:59;1.70;;;1.17;;